sensor_id;sensor_type;location;lat;lon;timestamp;temperature;humidity
46900;DHT22;32647;49.382;7.078;2022-10-16T00:01:14;14.30;99.90
46900;DHT22;32647;49.382;7.078;2022-10-16T00:04:01;14.20;99.90
46900;DHT22;32647;49.382;7.078;2022-10-16T00:06:47;14.30;99.90
46900;DHT22;32647;49.382;7.078;2022-10-16T00:09:33;14.20;99.90
46900;DHT22;32647;49.382;7.078;2022-10-16T00:12:19;14.30;99.90
46900;DHT22;32647;49.382;7.078;2022-10-16T00:15:05;14.20;99.90
46900;DHT22;32647;49.382;7.078;2022-10-16T00:17:51;14.20;99.90
46900;DHT22;32647;49.382;7.078;2022-10-16T00:20:37;14.10;99.90
46900;DHT22;32647;49.382;7.078;2022-10-16T00:23:23;14.10;99.90
46900;DHT22;32647;49.382;7.078;2022-10-16T00:26:12;14.00;99.90
46900;DHT22;32647;49.382;7.078;2022-10-16T00:28:58;14.00;99.90
46900;DHT22;32647;49.382;7.078;2022-10-16T00:31:45;14.10;99.90
46900;DHT22;32647;49.382;7.078;2022-10-16T00:34:31;14.10;99.90
46900;DHT22;32647;49.382;7.078;2022-10-16T00:37:16;14.10;99.90
46900;DHT22;32647;49.382;7.078;2022-10-16T00:40:03;14.00;99.90
46900;DHT22;32647;49.382;7.078;2022-10-16T00:42:48;14.10;99.90
46900;DHT22;32647;49.382;7.078;2022-10-16T00:45:34;14.00;99.90
46900;DHT22;32647;49.382;7.078;2022-10-16T00:48:20;14.00;99.90
46900;DHT22;32647;49.382;7.078;2022-10-16T00:51:07;14.10;99.90
46900;DHT22;32647;49.382;7.078;2022-10-16T00:53:55;14.00;99.90
46900;DHT22;32647;49.382;7.078;2022-10-16T00:56:42;14.00;99.90
46900;DHT22;32647;49.382;7.078;2022-10-16T00:59:37;14.10;99.90
46900;DHT22;32647;49.382;7.078;2022-10-16T01:02:24;14.10;99.90
46900;DHT22;32647;49.382;7.078;2022-10-16T01:05:10;14.10;99.90
46900;DHT22;32647;49.382;7.078;2022-10-16T01:08:09;14.10;99.90
46900;DHT22;32647;49.382;7.078;2022-10-16T01:11:05;14.10;99.90
46900;DHT22;32647;49.382;7.078;2022-10-16T01:13:54;14.10;99.90
46900;DHT22;32647;49.382;7.078;2022-10-16T01:22:54;14.10;99.90
46900;DHT22;32647;49.382;7.078;2022-10-16T01:32:53;14.00;99.90
46900;DHT22;32647;49.382;7.078;2022-10-16T01:35:52;14.10;99.90
46900;DHT22;32647;49.382;7.078;2022-10-16T01:38:39;14.10;99.90
46900;DHT22;32647;49.382;7.078;2022-10-16T01:41:31;14.10;99.90
46900;DHT22;32647;49.382;7.078;2022-10-16T01:44:22;14.10;99.90
46900;DHT22;32647;49.382;7.078;2022-10-16T01:47:10;14.10;99.90
46900;DHT22;32647;49.382;7.078;2022-10-16T01:49:59;14.10;99.90
46900;DHT22;32647;49.382;7.078;2022-10-16T01:52:49;14.10;99.90
46900;DHT22;32647;49.382;7.078;2022-10-16T01:55:39;14.10;99.90
46900;DHT22;32647;49.382;7.078;2022-10-16T01:58:30;14.10;99.90
46900;DHT22;32647;49.382;7.078;2022-10-16T02:01:22;14.10;99.90
46900;DHT22;32647;49.382;7.078;2022-10-16T02:07:09;14.20;99.90
46900;DHT22;32647;49.382;7.078;2022-10-16T02:09:55;14.20;99.90
46900;DHT22;32647;49.382;7.078;2022-10-16T02:12:45;14.30;99.90
46900;DHT22;32647;49.382;7.078;2022-10-16T02:15:32;14.20;99.90
46900;DHT22;32647;49.382;7.078;2022-10-16T02:18:19;14.30;99.90
46900;DHT22;32647;49.382;7.078;2022-10-16T02:21:19;14.30;99.90
46900;DHT22;32647;49.382;7.078;2022-10-16T02:24:14;14.30;99.90
46900;DHT22;32647;49.382;7.078;2022-10-16T02:30:07;14.30;99.90
46900;DHT22;32647;49.382;7.078;2022-10-16T02:32:55;14.30;99.90
46900;DHT22;32647;49.382;7.078;2022-10-16T02:35:44;14.30;99.90
46900;DHT22;32647;49.382;7.078;2022-10-16T02:38:32;14.30;99.90
46900;DHT22;32647;49.382;7.078;2022-10-16T02:41:20;14.40;99.90
46900;DHT22;32647;49.382;7.078;2022-10-16T02:44:06;14.40;99.90
46900;DHT22;32647;49.382;7.078;2022-10-16T02:46:52;14.30;99.90
46900;DHT22;32647;49.382;7.078;2022-10-16T02:49:38;14.30;99.90
46900;DHT22;32647;49.382;7.078;2022-10-16T02:52:25;14.30;99.90
46900;DHT22;32647;49.382;7.078;2022-10-16T02:55:11;14.30;99.90
46900;DHT22;32647;49.382;7.078;2022-10-16T02:57:57;14.30;99.90
46900;DHT22;32647;49.382;7.078;2022-10-16T03:00:43;14.30;99.90
46900;DHT22;32647;49.382;7.078;2022-10-16T03:03:29;14.30;99.90
46900;DHT22;32647;49.382;7.078;2022-10-16T03:06:15;14.40;99.90
46900;DHT22;32647;49.382;7.078;2022-10-16T03:09:01;14.40;99.90
46900;DHT22;32647;49.382;7.078;2022-10-16T03:11:47;14.30;99.90
46900;DHT22;32647;49.382;7.078;2022-10-16T03:14:33;14.40;99.90
46900;DHT22;32647;49.382;7.078;2022-10-16T03:17:19;14.30;99.90
46900;DHT22;32647;49.382;7.078;2022-10-16T03:20:06;14.30;99.90
46900;DHT22;32647;49.382;7.078;2022-10-16T03:22:52;14.30;99.90
46900;DHT22;32647;49.382;7.078;2022-10-16T03:25:38;14.30;99.90
46900;DHT22;32647;49.382;7.078;2022-10-16T03:28:24;14.30;99.90
46900;DHT22;32647;49.382;7.078;2022-10-16T03:31:13;14.30;99.90
46900;DHT22;32647;49.382;7.078;2022-10-16T03:33:59;14.40;99.90
46900;DHT22;32647;49.382;7.078;2022-10-16T03:36:45;14.30;99.90
46900;DHT22;32647;49.382;7.078;2022-10-16T03:39:31;14.30;99.90
46900;DHT22;32647;49.382;7.078;2022-10-16T03:42:17;14.30;99.90
46900;DHT22;32647;49.382;7.078;2022-10-16T03:45:04;14.20;99.90
46900;DHT22;32647;49.382;7.078;2022-10-16T03:47:50;14.20;99.90
46900;DHT22;32647;49.382;7.078;2022-10-16T03:50:36;14.20;99.90
46900;DHT22;32647;49.382;7.078;2022-10-16T03:53:22;14.20;99.90
46900;DHT22;32647;49.382;7.078;2022-10-16T03:56:08;14.10;99.90
46900;DHT22;32647;49.382;7.078;2022-10-16T03:58:54;14.10;99.90
46900;DHT22;32647;49.382;7.078;2022-10-16T04:01:40;14.10;99.90
46900;DHT22;32647;49.382;7.078;2022-10-16T04:04:26;14.20;99.90
46900;DHT22;32647;49.382;7.078;2022-10-16T04:07:12;14.10;99.90
46900;DHT22;32647;49.382;7.078;2022-10-16T04:09:58;14.10;99.90
46900;DHT22;32647;49.382;7.078;2022-10-16T04:12:45;14.10;99.90
46900;DHT22;32647;49.382;7.078;2022-10-16T04:15:30;14.10;99.90
46900;DHT22;32647;49.382;7.078;2022-10-16T04:18:16;14.10;99.90
46900;DHT22;32647;49.382;7.078;2022-10-16T04:21:04;14.10;99.90
46900;DHT22;32647;49.382;7.078;2022-10-16T04:23:50;14.10;99.90
46900;DHT22;32647;49.382;7.078;2022-10-16T04:26:36;14.10;99.90
46900;DHT22;32647;49.382;7.078;2022-10-16T04:29:22;14.10;99.90
46900;DHT22;32647;49.382;7.078;2022-10-16T04:32:09;14.10;99.90
46900;DHT22;32647;49.382;7.078;2022-10-16T04:34:55;14.10;99.90
46900;DHT22;32647;49.382;7.078;2022-10-16T04:37:41;14.10;99.90
46900;DHT22;32647;49.382;7.078;2022-10-16T04:40:27;14.10;99.90
46900;DHT22;32647;49.382;7.078;2022-10-16T04:43:13;14.10;99.90
46900;DHT22;32647;49.382;7.078;2022-10-16T04:45:59;14.10;99.90
46900;DHT22;32647;49.382;7.078;2022-10-16T04:48:45;14.10;99.90
46900;DHT22;32647;49.382;7.078;2022-10-16T04:51:32;14.20;99.90
46900;DHT22;32647;49.382;7.078;2022-10-16T04:54:18;14.10;99.90
46900;DHT22;32647;49.382;7.078;2022-10-16T04:57:04;14.20;99.90
46900;DHT22;32647;49.382;7.078;2022-10-16T04:59:50;14.10;99.90
46900;DHT22;32647;49.382;7.078;2022-10-16T05:02:36;14.10;99.90
46900;DHT22;32647;49.382;7.078;2022-10-16T05:05:22;14.10;99.90
46900;DHT22;32647;49.382;7.078;2022-10-16T05:08:08;14.10;99.90
46900;DHT22;32647;49.382;7.078;2022-10-16T05:10:54;14.00;99.90
46900;DHT22;32647;49.382;7.078;2022-10-16T05:13:40;14.00;99.90
46900;DHT22;32647;49.382;7.078;2022-10-16T05:16:26;14.10;99.90
46900;DHT22;32647;49.382;7.078;2022-10-16T05:19:12;14.00;99.90
46900;DHT22;32647;49.382;7.078;2022-10-16T05:21:58;14.00;99.90
46900;DHT22;32647;49.382;7.078;2022-10-16T05:24:44;14.00;99.90
46900;DHT22;32647;49.382;7.078;2022-10-16T05:27:30;14.00;99.90
46900;DHT22;32647;49.382;7.078;2022-10-16T05:30:17;14.10;99.90
46900;DHT22;32647;49.382;7.078;2022-10-16T05:33:04;14.00;99.90
46900;DHT22;32647;49.382;7.078;2022-10-16T05:35:50;14.00;99.90
46900;DHT22;32647;49.382;7.078;2022-10-16T05:38:37;14.00;99.90
46900;DHT22;32647;49.382;7.078;2022-10-16T05:41:23;14.10;99.90
46900;DHT22;32647;49.382;7.078;2022-10-16T05:44:11;14.10;99.90
46900;DHT22;32647;49.382;7.078;2022-10-16T05:46:57;14.10;99.90
46900;DHT22;32647;49.382;7.078;2022-10-16T05:49:43;14.10;99.90
46900;DHT22;32647;49.382;7.078;2022-10-16T05:52:29;14.20;99.90
46900;DHT22;32647;49.382;7.078;2022-10-16T05:55:15;14.20;99.90
46900;DHT22;32647;49.382;7.078;2022-10-16T05:58:01;14.10;99.90
46900;DHT22;32647;49.382;7.078;2022-10-16T06:00:55;14.10;99.90
46900;DHT22;32647;49.382;7.078;2022-10-16T06:03:41;14.20;99.90
46900;DHT22;32647;49.382;7.078;2022-10-16T06:06:28;14.10;99.90
46900;DHT22;32647;49.382;7.078;2022-10-16T06:09:15;14.10;99.90
46900;DHT22;32647;49.382;7.078;2022-10-16T06:12:04;14.10;99.90
46900;DHT22;32647;49.382;7.078;2022-10-16T06:14:50;14.10;99.90
46900;DHT22;32647;49.382;7.078;2022-10-16T06:17:36;14.10;99.90
46900;DHT22;32647;49.382;7.078;2022-10-16T06:20:22;14.10;99.90
46900;DHT22;32647;49.382;7.078;2022-10-16T06:23:08;14.10;99.90
46900;DHT22;32647;49.382;7.078;2022-10-16T06:25:54;14.10;99.90
46900;DHT22;32647;49.382;7.078;2022-10-16T06:28:40;14.20;99.90
46900;DHT22;32647;49.382;7.078;2022-10-16T06:31:27;14.20;99.90
46900;DHT22;32647;49.382;7.078;2022-10-16T06:34:16;14.30;99.90
46900;DHT22;32647;49.382;7.078;2022-10-16T06:37:01;14.30;99.90
46900;DHT22;32647;49.382;7.078;2022-10-16T06:39:47;14.30;99.90
46900;DHT22;32647;49.382;7.078;2022-10-16T06:42:33;14.30;99.90
46900;DHT22;32647;49.382;7.078;2022-10-16T06:45:19;14.20;99.90
46900;DHT22;32647;49.382;7.078;2022-10-16T06:48:05;14.20;99.90
46900;DHT22;32647;49.382;7.078;2022-10-16T06:51:12;14.30;99.90
46900;DHT22;32647;49.382;7.078;2022-10-16T06:53:58;14.30;99.90
46900;DHT22;32647;49.382;7.078;2022-10-16T06:56:44;14.30;99.90
46900;DHT22;32647;49.382;7.078;2022-10-16T06:59:30;14.30;99.90
46900;DHT22;32647;49.382;7.078;2022-10-16T07:02:16;14.20;99.90
46900;DHT22;32647;49.382;7.078;2022-10-16T07:05:02;14.30;99.90
46900;DHT22;32647;49.382;7.078;2022-10-16T07:07:48;14.30;99.90
46900;DHT22;32647;49.382;7.078;2022-10-16T07:10:35;14.20;99.90
46900;DHT22;32647;49.382;7.078;2022-10-16T07:13:21;14.20;99.90
46900;DHT22;32647;49.382;7.078;2022-10-16T07:16:07;14.30;99.90
46900;DHT22;32647;49.382;7.078;2022-10-16T07:18:55;14.30;99.90
46900;DHT22;32647;49.382;7.078;2022-10-16T07:21:44;14.40;99.90
46900;DHT22;32647;49.382;7.078;2022-10-16T07:24:31;14.50;99.90
46900;DHT22;32647;49.382;7.078;2022-10-16T07:27:17;14.50;99.90
46900;DHT22;32647;49.382;7.078;2022-10-16T07:30:04;14.60;99.90
46900;DHT22;32647;49.382;7.078;2022-10-16T07:32:50;14.70;99.90
46900;DHT22;32647;49.382;7.078;2022-10-16T07:35:36;14.70;99.90
46900;DHT22;32647;49.382;7.078;2022-10-16T07:38:23;14.70;99.90
46900;DHT22;32647;49.382;7.078;2022-10-16T07:41:11;14.70;99.90
46900;DHT22;32647;49.382;7.078;2022-10-16T07:43:58;14.70;99.90
46900;DHT22;32647;49.382;7.078;2022-10-16T07:46:46;14.80;99.90
46900;DHT22;32647;49.382;7.078;2022-10-16T07:49:32;14.80;99.90
46900;DHT22;32647;49.382;7.078;2022-10-16T07:52:18;14.80;99.90
46900;DHT22;32647;49.382;7.078;2022-10-16T07:55:04;14.90;99.90
46900;DHT22;32647;49.382;7.078;2022-10-16T07:57:50;14.90;99.90
46900;DHT22;32647;49.382;7.078;2022-10-16T08:00:37;15.00;99.90
46900;DHT22;32647;49.382;7.078;2022-10-16T08:03:24;15.10;99.90
46900;DHT22;32647;49.382;7.078;2022-10-16T08:06:10;15.10;99.90
46900;DHT22;32647;49.382;7.078;2022-10-16T08:08:56;15.20;99.90
46900;DHT22;32647;49.382;7.078;2022-10-16T08:11:42;15.20;99.90
46900;DHT22;32647;49.382;7.078;2022-10-16T08:14:28;15.30;99.90
46900;DHT22;32647;49.382;7.078;2022-10-16T08:17:14;15.40;99.90
46900;DHT22;32647;49.382;7.078;2022-10-16T08:20:01;15.50;99.90
46900;DHT22;32647;49.382;7.078;2022-10-16T08:22:47;15.50;99.90
46900;DHT22;32647;49.382;7.078;2022-10-16T08:25:37;15.60;99.90
46900;DHT22;32647;49.382;7.078;2022-10-16T08:28:23;15.60;99.90
46900;DHT22;32647;49.382;7.078;2022-10-16T08:31:12;15.70;99.90
46900;DHT22;32647;49.382;7.078;2022-10-16T08:33:58;15.80;99.90
46900;DHT22;32647;49.382;7.078;2022-10-16T08:36:44;15.90;99.90
46900;DHT22;32647;49.382;7.078;2022-10-16T08:39:30;16.00;99.90
46900;DHT22;32647;49.382;7.078;2022-10-16T08:45:02;16.20;99.90
46900;DHT22;32647;49.382;7.078;2022-10-16T08:50:55;16.50;99.90
46900;DHT22;32647;49.382;7.078;2022-10-16T08:54:50;16.60;99.90
46900;DHT22;32647;49.382;7.078;2022-10-16T08:57:19;16.60;99.90
46900;DHT22;32647;49.382;7.078;2022-10-16T09:00:12;16.60;99.90
46900;DHT22;32647;49.382;7.078;2022-10-16T09:03:05;16.50;99.90
46900;DHT22;32647;49.382;7.078;2022-10-16T09:19:20;16.90;99.90
46900;DHT22;32647;49.382;7.078;2022-10-16T09:22:18;17.20;99.90
46900;DHT22;32647;49.382;7.078;2022-10-16T09:25:16;17.60;99.90
46900;DHT22;32647;49.382;7.078;2022-10-16T09:28:02;17.70;99.90
46900;DHT22;32647;49.382;7.078;2022-10-16T09:30:49;17.80;99.90
46900;DHT22;32647;49.382;7.078;2022-10-16T09:33:37;18.00;99.90
46900;DHT22;32647;49.382;7.078;2022-10-16T09:36:27;17.80;99.90
46900;DHT22;32647;49.382;7.078;2022-10-16T09:39:13;17.80;99.90
46900;DHT22;32647;49.382;7.078;2022-10-16T09:42:00;17.80;99.90
46900;DHT22;32647;49.382;7.078;2022-10-16T09:44:51;18.10;99.90
46900;DHT22;32647;49.382;7.078;2022-10-16T09:47:39;17.90;99.90
46900;DHT22;32647;49.382;7.078;2022-10-16T09:50:28;17.90;99.90
46900;DHT22;32647;49.382;7.078;2022-10-16T09:53:15;18.00;99.90
46900;DHT22;32647;49.382;7.078;2022-10-16T09:56:10;18.00;99.90
46900;DHT22;32647;49.382;7.078;2022-10-16T09:59:14;18.00;99.90
46900;DHT22;32647;49.382;7.078;2022-10-16T10:02:04;18.20;99.90
46900;DHT22;32647;49.382;7.078;2022-10-16T10:04:56;18.30;99.90
46900;DHT22;32647;49.382;7.078;2022-10-16T10:07:43;18.40;99.90
46900;DHT22;32647;49.382;7.078;2022-10-16T10:10:41;18.40;99.90
46900;DHT22;32647;49.382;7.078;2022-10-16T10:13:28;18.40;99.90
46900;DHT22;32647;49.382;7.078;2022-10-16T10:16:23;18.50;99.90
46900;DHT22;32647;49.382;7.078;2022-10-16T10:19:22;18.90;99.90
46900;DHT22;32647;49.382;7.078;2022-10-16T10:22:43;18.80;99.90
46900;DHT22;32647;49.382;7.078;2022-10-16T10:26:20;18.80;99.90
46900;DHT22;32647;49.382;7.078;2022-10-16T10:32:12;18.80;99.90
46900;DHT22;32647;49.382;7.078;2022-10-16T10:44:08;18.70;99.90
46900;DHT22;32647;49.382;7.078;2022-10-16T10:47:40;18.70;99.90
46900;DHT22;32647;49.382;7.078;2022-10-16T10:50:45;18.60;99.90
46900;DHT22;32647;49.382;7.078;2022-10-16T11:00:28;18.30;99.90
46900;DHT22;32647;49.382;7.078;2022-10-16T11:06:39;18.40;99.90
46900;DHT22;32647;49.382;7.078;2022-10-16T11:09:31;18.60;99.90
46900;DHT22;32647;49.382;7.078;2022-10-16T11:12:35;18.60;99.90
46900;DHT22;32647;49.382;7.078;2022-10-16T11:15:31;18.70;99.90
46900;DHT22;32647;49.382;7.078;2022-10-16T11:18:40;18.60;99.90
46900;DHT22;32647;49.382;7.078;2022-10-16T11:21:33;18.50;99.90
46900;DHT22;32647;49.382;7.078;2022-10-16T11:24:41;18.40;99.90
46900;DHT22;32647;49.382;7.078;2022-10-16T11:27:43;18.30;99.90
46900;DHT22;32647;49.382;7.078;2022-10-16T11:30:38;18.20;99.90
46900;DHT22;32647;49.382;7.078;2022-10-16T11:36:25;18.10;99.90
46900;DHT22;32647;49.382;7.078;2022-10-16T11:39:22;18.10;99.90
46900;DHT22;32647;49.382;7.078;2022-10-16T11:42:34;18.10;99.90
46900;DHT22;32647;49.382;7.078;2022-10-16T11:45:45;17.90;99.90
46900;DHT22;32647;49.382;7.078;2022-10-16T11:48:57;17.80;99.90
46900;DHT22;32647;49.382;7.078;2022-10-16T11:57:51;17.80;99.90
46900;DHT22;32647;49.382;7.078;2022-10-16T12:00:58;17.80;99.90
46900;DHT22;32647;49.382;7.078;2022-10-16T12:07:09;17.60;99.90
46900;DHT22;32647;49.382;7.078;2022-10-16T12:09:57;17.70;99.90
46900;DHT22;32647;49.382;7.078;2022-10-16T12:12:47;17.60;99.90
46900;DHT22;32647;49.382;7.078;2022-10-16T12:15:34;17.50;99.90
46900;DHT22;32647;49.382;7.078;2022-10-16T12:18:24;17.50;99.90
46900;DHT22;32647;49.382;7.078;2022-10-16T12:21:12;17.50;99.90
46900;DHT22;32647;49.382;7.078;2022-10-16T12:24:03;17.60;99.90
46900;DHT22;32647;49.382;7.078;2022-10-16T12:26:52;17.70;99.90
46900;DHT22;32647;49.382;7.078;2022-10-16T12:29:40;17.90;99.90
46900;DHT22;32647;49.382;7.078;2022-10-16T12:35:20;18.10;99.90
46900;DHT22;32647;49.382;7.078;2022-10-16T12:38:25;18.20;99.90
46900;DHT22;32647;49.382;7.078;2022-10-16T12:41:12;18.30;99.90
46900;DHT22;32647;49.382;7.078;2022-10-16T12:44:01;18.40;99.90
46900;DHT22;32647;49.382;7.078;2022-10-16T12:46:47;18.60;99.90
46900;DHT22;32647;49.382;7.078;2022-10-16T12:49:37;18.50;99.90
46900;DHT22;32647;49.382;7.078;2022-10-16T12:52:36;18.50;99.90
46900;DHT22;32647;49.382;7.078;2022-10-16T12:55:23;18.60;99.90
46900;DHT22;32647;49.382;7.078;2022-10-16T12:58:33;18.70;99.90
46900;DHT22;32647;49.382;7.078;2022-10-16T13:14:23;18.80;99.90
46900;DHT22;32647;49.382;7.078;2022-10-16T13:17:14;19.00;99.90
46900;DHT22;32647;49.382;7.078;2022-10-16T13:20:06;19.10;99.90
46900;DHT22;32647;49.382;7.078;2022-10-16T13:23:02;19.10;99.90
46900;DHT22;32647;49.382;7.078;2022-10-16T13:26:55;19.20;99.90
46900;DHT22;32647;49.382;7.078;2022-10-16T13:29:15;19.20;99.90
46900;DHT22;32647;49.382;7.078;2022-10-16T13:32:07;19.10;99.90
46900;DHT22;32647;49.382;7.078;2022-10-16T13:34:54;18.80;99.90
46900;DHT22;32647;49.382;7.078;2022-10-16T13:37:41;18.90;99.90
46900;DHT22;32647;49.382;7.078;2022-10-16T13:40:27;19.00;99.90
46900;DHT22;32647;49.382;7.078;2022-10-16T13:43:13;19.10;99.90
46900;DHT22;32647;49.382;7.078;2022-10-16T13:46:03;19.20;99.90
46900;DHT22;32647;49.382;7.078;2022-10-16T13:49:16;19.10;99.90
46900;DHT22;32647;49.382;7.078;2022-10-16T13:52:02;19.10;99.90
46900;DHT22;32647;49.382;7.078;2022-10-16T13:54:48;19.20;99.90
46900;DHT22;32647;49.382;7.078;2022-10-16T13:57:34;19.30;99.90
46900;DHT22;32647;49.382;7.078;2022-10-16T14:00:25;19.20;99.90
46900;DHT22;32647;49.382;7.078;2022-10-16T14:03:16;19.20;99.90
46900;DHT22;32647;49.382;7.078;2022-10-16T14:06:04;19.60;99.90
46900;DHT22;32647;49.382;7.078;2022-10-16T14:08:58;19.70;99.90
46900;DHT22;32647;49.382;7.078;2022-10-16T14:11:48;19.50;99.90
46900;DHT22;32647;49.382;7.078;2022-10-16T14:14:40;19.60;99.90
46900;DHT22;32647;49.382;7.078;2022-10-16T14:17:32;19.20;99.90
46900;DHT22;32647;49.382;7.078;2022-10-16T14:20:22;19.20;99.90
46900;DHT22;32647;49.382;7.078;2022-10-16T14:23:30;19.30;99.90
46900;DHT22;32647;49.382;7.078;2022-10-16T14:26:20;19.00;99.90
46900;DHT22;32647;49.382;7.078;2022-10-16T14:32:03;18.80;99.90
46900;DHT22;32647;49.382;7.078;2022-10-16T14:34:53;18.70;99.90
46900;DHT22;32647;49.382;7.078;2022-10-16T14:37:40;18.60;99.90
46900;DHT22;32647;49.382;7.078;2022-10-16T14:40:32;18.60;99.90
46900;DHT22;32647;49.382;7.078;2022-10-16T14:43:22;18.60;99.90
46900;DHT22;32647;49.382;7.078;2022-10-16T14:46:20;18.70;99.90
46900;DHT22;32647;49.382;7.078;2022-10-16T14:51:57;18.60;99.90
46900;DHT22;32647;49.382;7.078;2022-10-16T14:54:47;18.50;99.90
46900;DHT22;32647;49.382;7.078;2022-10-16T14:57:36;18.40;99.90
46900;DHT22;32647;49.382;7.078;2022-10-16T15:00:23;18.40;99.90
46900;DHT22;32647;49.382;7.078;2022-10-16T15:03:10;18.30;99.90
46900;DHT22;32647;49.382;7.078;2022-10-16T15:05:56;18.20;99.90
46900;DHT22;32647;49.382;7.078;2022-10-16T15:08:42;18.20;99.90
46900;DHT22;32647;49.382;7.078;2022-10-16T15:11:28;18.30;99.90
46900;DHT22;32647;49.382;7.078;2022-10-16T15:14:16;18.20;99.90
46900;DHT22;32647;49.382;7.078;2022-10-16T15:17:02;18.10;99.90
46900;DHT22;32647;49.382;7.078;2022-10-16T15:19:48;18.00;99.90
46900;DHT22;32647;49.382;7.078;2022-10-16T15:22:34;18.00;99.90
46900;DHT22;32647;49.382;7.078;2022-10-16T15:28:23;18.00;99.90
46900;DHT22;32647;49.382;7.078;2022-10-16T15:31:09;17.90;99.90
46900;DHT22;32647;49.382;7.078;2022-10-16T15:33:55;18.20;99.90
46900;DHT22;32647;49.382;7.078;2022-10-16T15:36:47;18.40;99.90
46900;DHT22;32647;49.382;7.078;2022-10-16T15:39:32;18.50;99.90
46900;DHT22;32647;49.382;7.078;2022-10-16T15:42:18;18.50;99.90
46900;DHT22;32647;49.382;7.078;2022-10-16T15:45:05;18.50;99.90
46900;DHT22;32647;49.382;7.078;2022-10-16T15:47:52;18.50;99.90
46900;DHT22;32647;49.382;7.078;2022-10-16T15:50:38;18.30;99.90
46900;DHT22;32647;49.382;7.078;2022-10-16T15:53:25;18.20;99.90
46900;DHT22;32647;49.382;7.078;2022-10-16T15:56:11;18.00;99.90
46900;DHT22;32647;49.382;7.078;2022-10-16T15:58:58;17.80;99.90
46900;DHT22;32647;49.382;7.078;2022-10-16T16:01:44;17.70;99.90
46900;DHT22;32647;49.382;7.078;2022-10-16T16:04:30;17.70;99.90
46900;DHT22;32647;49.382;7.078;2022-10-16T16:07:16;17.60;99.90
46900;DHT22;32647;49.382;7.078;2022-10-16T16:10:04;17.60;99.90
46900;DHT22;32647;49.382;7.078;2022-10-16T16:12:50;17.40;99.90
46900;DHT22;32647;49.382;7.078;2022-10-16T16:15:40;17.20;99.90
46900;DHT22;32647;49.382;7.078;2022-10-16T16:18:26;17.10;99.90
46900;DHT22;32647;49.382;7.078;2022-10-16T16:21:12;17.00;99.90
46900;DHT22;32647;49.382;7.078;2022-10-16T16:23:59;16.90;99.90
46900;DHT22;32647;49.382;7.078;2022-10-16T16:26:45;16.90;99.90
46900;DHT22;32647;49.382;7.078;2022-10-16T16:29:31;16.90;99.90
46900;DHT22;32647;49.382;7.078;2022-10-16T16:32:17;16.90;99.90
46900;DHT22;32647;49.382;7.078;2022-10-16T16:35:04;16.80;99.90
46900;DHT22;32647;49.382;7.078;2022-10-16T16:37:50;16.70;99.90
46900;DHT22;32647;49.382;7.078;2022-10-16T16:40:36;16.60;99.90
46900;DHT22;32647;49.382;7.078;2022-10-16T16:43:26;16.50;99.90
46900;DHT22;32647;49.382;7.078;2022-10-16T16:46:13;16.50;99.90
46900;DHT22;32647;49.382;7.078;2022-10-16T16:49:00;16.40;99.90
46900;DHT22;32647;49.382;7.078;2022-10-16T16:51:46;16.40;99.90
46900;DHT22;32647;49.382;7.078;2022-10-16T16:54:32;16.30;99.90
46900;DHT22;32647;49.382;7.078;2022-10-16T16:57:19;16.30;99.90
46900;DHT22;32647;49.382;7.078;2022-10-16T17:00:05;16.10;99.90
46900;DHT22;32647;49.382;7.078;2022-10-16T17:02:52;16.00;99.90
46900;DHT22;32647;49.382;7.078;2022-10-16T17:05:38;15.90;99.90
46900;DHT22;32647;49.382;7.078;2022-10-16T17:08:24;15.90;99.90
46900;DHT22;32647;49.382;7.078;2022-10-16T17:11:16;15.90;99.90
46900;DHT22;32647;49.382;7.078;2022-10-16T17:14:02;15.90;99.90
46900;DHT22;32647;49.382;7.078;2022-10-16T17:16:48;15.80;99.90
46900;DHT22;32647;49.382;7.078;2022-10-16T17:19:34;15.80;99.90
46900;DHT22;32647;49.382;7.078;2022-10-16T17:22:21;15.70;99.90
46900;DHT22;32647;49.382;7.078;2022-10-16T17:25:07;15.60;99.90
46900;DHT22;32647;49.382;7.078;2022-10-16T17:27:53;15.50;99.90
46900;DHT22;32647;49.382;7.078;2022-10-16T17:30:42;15.30;99.90
46900;DHT22;32647;49.382;7.078;2022-10-16T17:33:28;15.30;99.90
46900;DHT22;32647;49.382;7.078;2022-10-16T17:36:14;15.30;99.90
46900;DHT22;32647;49.382;7.078;2022-10-16T17:39:02;15.30;99.90
46900;DHT22;32647;49.382;7.078;2022-10-16T17:41:55;15.30;99.90
46900;DHT22;32647;49.382;7.078;2022-10-16T17:44:41;15.30;99.90
46900;DHT22;32647;49.382;7.078;2022-10-16T17:47:27;15.10;99.90
46900;DHT22;32647;49.382;7.078;2022-10-16T17:50:13;14.90;99.90
46900;DHT22;32647;49.382;7.078;2022-10-16T17:53:00;14.90;99.90
46900;DHT22;32647;49.382;7.078;2022-10-16T17:55:46;14.90;99.90
46900;DHT22;32647;49.382;7.078;2022-10-16T17:58:32;14.90;99.90
46900;DHT22;32647;49.382;7.078;2022-10-16T18:04:07;14.90;99.90
46900;DHT22;32647;49.382;7.078;2022-10-16T18:06:54;14.70;99.90
46900;DHT22;32647;49.382;7.078;2022-10-16T18:09:40;14.70;99.90
46900;DHT22;32647;49.382;7.078;2022-10-16T18:12:26;14.60;99.90
46900;DHT22;32647;49.382;7.078;2022-10-16T18:15:15;14.60;99.90
46900;DHT22;32647;49.382;7.078;2022-10-16T18:18:01;14.50;99.90
46900;DHT22;32647;49.382;7.078;2022-10-16T18:20:57;14.50;99.90
46900;DHT22;32647;49.382;7.078;2022-10-16T18:23:44;14.50;99.90
46900;DHT22;32647;49.382;7.078;2022-10-16T18:26:30;14.60;99.90
46900;DHT22;32647;49.382;7.078;2022-10-16T18:29:17;14.60;99.90
46900;DHT22;32647;49.382;7.078;2022-10-16T18:32:03;14.60;99.90
46900;DHT22;32647;49.382;7.078;2022-10-16T18:34:49;14.50;99.90
46900;DHT22;32647;49.382;7.078;2022-10-16T18:37:36;14.30;99.90
46900;DHT22;32647;49.382;7.078;2022-10-16T18:40:22;14.20;99.90
46900;DHT22;32647;49.382;7.078;2022-10-16T18:43:08;14.20;99.90
46900;DHT22;32647;49.382;7.078;2022-10-16T18:45:55;14.20;99.90
46900;DHT22;32647;49.382;7.078;2022-10-16T18:48:42;14.20;99.90
46900;DHT22;32647;49.382;7.078;2022-10-16T18:51:29;14.20;99.90
46900;DHT22;32647;49.382;7.078;2022-10-16T18:54:18;14.20;99.90
46900;DHT22;32647;49.382;7.078;2022-10-16T18:57:04;14.10;99.90
46900;DHT22;32647;49.382;7.078;2022-10-16T18:59:50;14.10;99.90
46900;DHT22;32647;49.382;7.078;2022-10-16T19:02:36;14.10;99.90
46900;DHT22;32647;49.382;7.078;2022-10-16T19:05:22;14.00;99.90
46900;DHT22;32647;49.382;7.078;2022-10-16T19:08:09;14.00;99.90
46900;DHT22;32647;49.382;7.078;2022-10-16T19:10:55;13.90;99.90
46900;DHT22;32647;49.382;7.078;2022-10-16T19:13:42;13.80;99.90
46900;DHT22;32647;49.382;7.078;2022-10-16T19:16:31;13.80;99.90
46900;DHT22;32647;49.382;7.078;2022-10-16T19:19:18;13.80;99.90
46900;DHT22;32647;49.382;7.078;2022-10-16T19:22:04;13.80;99.90
46900;DHT22;32647;49.382;7.078;2022-10-16T19:24:58;13.70;99.90
46900;DHT22;32647;49.382;7.078;2022-10-16T19:27:44;13.70;99.90